Skip Navigation Links Skip Navigation Links

Current Weather

Antwerpen / Deurne, Belgium

For information only: do not use for flight planning or navigation.
Latest weather
Observation time Tuesday, October 19, 2021 10:20 AM CEST
Local time Tuesday, October 19, 2021 10:55 AM CEST
Flight conditions Instrument Meteorological Conditions
Winds
Wind direction South-Southwest (210°)
Wind speed 10 mph
Visibility 5 mi.
Sky condition
Ceiling 600 ft. overcast
Cloud layer scattered clouds 500 ft.
Cloud layer overcast 600 ft.
Temperature 61°F
Dewpoint 57°F
Altimeter 30.03 in.Hg
Derived measurements
Relative humidity 88%
Density altitude 226 ft.
METAR EBAW 190820Z 21009KT 8000 SCT005 OVC006 16/14 Q1017 TEMPO 4000 -DZ

Settings

Location code

InnerDrive.Weather 4.0.6770.0 Release CLR 4.0.30319.42000
Copyright ©2018 Inner Drive Technology. All rights reserved. Portions Copyright ©1986-2018 David Braverman.

Find weather

Site navigation


Skip Navigation Links

Place info

Page info

PayPal - The safer, easier way to pay online!

Return home.

Copyright ©2021 Inner Drive Technology. Purveyors of fine, hand-crafted computer software. Page printed 2021-10-19T08:55:53 UTC.